createdAt,value
2022-10-07T00:01:03.437Z,-48
2022-10-07T00:02:09.718Z,-50
2022-10-07T00:03:15.980Z,-50
2022-10-07T00:04:22.262Z,-47
2022-10-07T00:05:28.526Z,-47
2022-10-07T00:06:34.806Z,-47
2022-10-07T00:07:41.075Z,-47
2022-10-07T00:08:46.371Z,-47
2022-10-07T00:09:52.631Z,-49
2022-10-07T00:10:58.903Z,-49
2022-10-07T00:12:05.178Z,-48
2022-10-07T00:13:11.449Z,-49
2022-10-07T00:14:17.728Z,-50
2022-10-07T00:15:24.000Z,-46
2022-10-07T00:16:29.292Z,-49
2022-10-07T00:17:34.711Z,-48
2022-10-07T00:18:39.882Z,-48
2022-10-07T00:19:45.164Z,-48
2022-10-07T00:20:51.443Z,-47
2022-10-07T00:21:57.712Z,-48
2022-10-07T00:23:03.980Z,-47
2022-10-07T00:24:10.249Z,-48
2022-10-07T00:25:16.529Z,-47
2022-10-07T00:26:22.808Z,-47
2022-10-07T00:27:29.072Z,-46
2022-10-07T00:28:35.340Z,-46
2022-10-07T00:29:41.616Z,-49
2022-10-07T00:30:47.883Z,-47
2022-10-07T00:31:54.159Z,-46
2022-10-07T00:33:00.434Z,-47
2022-10-07T00:34:05.718Z,-46
2022-10-07T00:35:11.991Z,-49
2022-10-07T00:36:18.266Z,-48
2022-10-07T00:37:24.548Z,-46
2022-10-07T00:38:30.809Z,-47
2022-10-07T00:39:37.082Z,-47
2022-10-07T00:40:43.347Z,-48
2022-10-07T00:41:48.657Z,-48
2022-10-07T00:42:53.945Z,-48
2022-10-07T00:44:00.217Z,-50
2022-10-07T00:45:05.507Z,-46
2022-10-07T00:46:10.797Z,-47
2022-10-07T00:47:17.076Z,-47
2022-10-07T00:48:23.346Z,-48
2022-10-07T00:49:29.611Z,-47
2022-10-07T00:50:35.889Z,-47
2022-10-07T00:51:42.184Z,-46
2022-10-07T00:52:48.429Z,-47
2022-10-07T00:53:54.714Z,-49
2022-10-07T00:55:00.973Z,-46
2022-10-07T00:56:07.258Z,-47
2022-10-07T00:57:13.513Z,-47
2022-10-07T00:58:19.788Z,-48
2022-10-07T00:59:26.068Z,-46
2022-10-07T01:00:31.354Z,-48
2022-10-07T01:01:37.620Z,-47
2022-10-07T01:02:43.896Z,-48
2022-10-07T01:03:50.171Z,-47
2022-10-07T01:04:56.448Z,-47
2022-10-07T01:06:02.721Z,-47
2022-10-07T01:07:08.980Z,-47
2022-10-07T01:08:14.280Z,-46
2022-10-07T01:09:19.577Z,-48
2022-10-07T01:10:24.878Z,-47
2022-10-07T01:11:30.161Z,-47
2022-10-07T01:12:36.431Z,-46
2022-10-07T01:13:42.701Z,-47
2022-10-07T01:14:48.978Z,-46
2022-10-07T01:15:55.255Z,-47
2022-10-07T01:17:01.527Z,-46
2022-10-07T01:18:07.792Z,-46
2022-10-07T01:19:14.062Z,-46
2022-10-07T01:20:20.333Z,-46
2022-10-07T01:21:26.608Z,-47
2022-10-07T01:22:32.876Z,-45
2022-10-07T01:23:39.179Z,-46
2022-10-07T01:24:45.429Z,-46
2022-10-07T01:25:50.709Z,-47
2022-10-07T01:26:56.992Z,-46
2022-10-07T01:28:03.253Z,-46
2022-10-07T01:29:09.529Z,-47
2022-10-07T01:30:15.803Z,-46
2022-10-07T01:31:22.068Z,-46
2022-10-07T01:32:28.343Z,-46
2022-10-07T01:33:33.638Z,-47
2022-10-07T01:34:38.933Z,-44
2022-10-07T01:35:44.229Z,-45
2022-10-07T01:36:49.521Z,-46
2022-10-07T01:37:54.813Z,-46
2022-10-07T01:39:01.080Z,-46
2022-10-07T01:40:07.357Z,-46
2022-10-07T01:41:13.630Z,-46
2022-10-07T01:42:19.904Z,-46
2022-10-07T01:43:26.179Z,-47
2022-10-07T01:44:32.458Z,-47
2022-10-07T01:45:38.773Z,-46
2022-10-07T01:46:44.992Z,-46
2022-10-07T01:47:51.335Z,-46
2022-10-07T01:48:57.531Z,-47
2022-10-07T01:50:03.800Z,-46
2022-10-07T01:51:10.072Z,-46
2022-10-07T01:52:15.364Z,-46
2022-10-07T01:53:21.663Z,-48
2022-10-07T01:54:27.911Z,-46
2022-10-07T01:55:34.184Z,-47
2022-10-07T01:56:40.460Z,-46
2022-10-07T01:57:46.722Z,-46
2022-10-07T01:58:52.026Z,-46
2022-10-07T01:59:57.314Z,-46
2022-10-07T02:01:02.612Z,-46
2022-10-07T02:02:07.898Z,-45
2022-10-07T02:03:14.185Z,-46
2022-10-07T02:04:20.438Z,-46
2022-10-07T02:05:26.721Z,-46
2022-10-07T02:06:32.986Z,-46
2022-10-07T02:07:39.294Z,-46
2022-10-07T02:08:45.536Z,-46
2022-10-07T02:09:51.805Z,-44
2022-10-07T02:10:58.080Z,-47
2022-10-07T02:12:04.350Z,-46
2022-10-07T02:13:10.624Z,-46
2022-10-07T02:14:16.889Z,-46
2022-10-07T02:15:23.166Z,-46
2022-10-07T02:16:28.461Z,-46
2022-10-07T02:17:34.725Z,-46
2022-10-07T02:18:40.998Z,-46
2022-10-07T02:19:47.270Z,-45
2022-10-07T02:20:53.554Z,-45
2022-10-07T02:21:59.808Z,-47
2022-10-07T02:23:06.088Z,-46
2022-10-07T02:24:11.387Z,-45
2022-10-07T02:25:16.671Z,-46
2022-10-07T02:26:21.993Z,-46
2022-10-07T02:27:27.259Z,-46
2022-10-07T02:28:33.539Z,-46
2022-10-07T02:29:39.801Z,-45
2022-10-07T02:30:46.070Z,-46
2022-10-07T02:31:52.353Z,-46
2022-10-07T02:32:58.620Z,-46
2022-10-07T02:34:04.891Z,-46
2022-10-07T02:35:11.168Z,-47
2022-10-07T02:36:17.445Z,-46
2022-10-07T02:37:23.708Z,-47
2022-10-07T02:38:29.978Z,-47
2022-10-07T02:39:36.249Z,-47
2022-10-07T02:40:42.521Z,-46
2022-10-07T02:41:47.808Z,-46
2022-10-07T02:42:54.091Z,-46
2022-10-07T02:44:00.350Z,-46
2022-10-07T02:45:06.623Z,-46
2022-10-07T02:46:12.905Z,-46
2022-10-07T02:47:19.173Z,-46
2022-10-07T02:48:25.445Z,-46
2022-10-07T02:49:30.751Z,-46
2022-10-07T02:50:36.036Z,-46
2022-10-07T02:51:41.330Z,-46
2022-10-07T02:52:46.620Z,-46
2022-10-07T02:53:52.896Z,-46
2022-10-07T02:54:59.164Z,-46
2022-10-07T02:56:05.434Z,-46
2022-10-07T02:57:11.713Z,-46
2022-10-07T02:58:17.978Z,-46
2022-10-07T02:59:24.251Z,-46
2022-10-07T03:00:30.532Z,-46
2022-10-07T03:01:36.801Z,-46
2022-10-07T03:02:43.068Z,-46
2022-10-07T03:03:49.335Z,-48
2022-10-07T03:04:55.620Z,-47
2022-10-07T03:06:01.895Z,-46
2022-10-07T03:07:07.171Z,-46
2022-10-07T03:08:13.458Z,-46
2022-10-07T03:09:19.718Z,-46
2022-10-07T03:10:26.050Z,-46
2022-10-07T03:11:32.306Z,-46
2022-10-07T03:12:38.560Z,-46
2022-10-07T03:13:44.802Z,-49
2022-10-07T03:14:50.102Z,-45
2022-10-07T03:15:55.387Z,-46
2022-10-07T03:17:00.694Z,-46
2022-10-07T03:18:05.977Z,-46
2022-10-07T03:19:12.259Z,-45
2022-10-07T03:20:18.526Z,-46
2022-10-07T03:21:24.792Z,-46
2022-10-07T03:22:31.071Z,-47
2022-10-07T03:23:37.344Z,-47
2022-10-07T03:24:43.706Z,-46
2022-10-07T03:25:49.915Z,-46
2022-10-07T03:26:56.161Z,-46
2022-10-07T03:28:02.423Z,-46
2022-10-07T03:29:08.722Z,-46
2022-10-07T03:30:14.975Z,-46
2022-10-07T03:31:21.239Z,-46
2022-10-07T03:32:26.535Z,-47
2022-10-07T03:33:32.818Z,-46
2022-10-07T03:34:39.073Z,-46
2022-10-07T03:35:45.344Z,-46
2022-10-07T03:36:51.632Z,-46
2022-10-07T03:37:57.892Z,-46
2022-10-07T03:39:04.177Z,-46
2022-10-07T03:40:09.461Z,-47
2022-10-07T03:41:14.767Z,-46
2022-10-07T03:42:21.024Z,-47
2022-10-07T03:43:27.296Z,-46
2022-10-07T03:44:33.568Z,-46
2022-10-07T03:45:39.838Z,-46
2022-10-07T03:46:46.110Z,-46
2022-10-07T03:47:52.391Z,-46
2022-10-07T03:48:58.654Z,-46
2022-10-07T03:50:04.924Z,-46
2022-10-07T03:51:11.203Z,-46
2022-10-07T03:52:17.491Z,-46
2022-10-07T03:53:23.746Z,-46
2022-10-07T03:54:30.016Z,-46
2022-10-07T03:55:35.313Z,-46
2022-10-07T03:56:41.574Z,-46
2022-10-07T03:57:47.848Z,-45
2022-10-07T03:58:54.118Z,-46
2022-10-07T04:00:00.392Z,-46
2022-10-07T04:01:06.672Z,-46
2022-10-07T04:02:12.940Z,-46
2022-10-07T04:03:18.237Z,-46
2022-10-07T04:04:23.530Z,-45
2022-10-07T04:05:28.825Z,-46
2022-10-07T04:06:34.116Z,-46
2022-10-07T04:07:39.409Z,-46
2022-10-07T04:08:44.701Z,-46
2022-10-07T04:09:50.973Z,-46
2022-10-07T04:10:57.252Z,-46
2022-10-07T04:12:03.512Z,-46
2022-10-07T04:13:09.792Z,-46
2022-10-07T04:14:16.086Z,-46
2022-10-07T04:15:22.337Z,-46
2022-10-07T04:16:28.616Z,-46
2022-10-07T04:17:34.881Z,-46
2022-10-07T04:18:41.157Z,-47
2022-10-07T04:19:47.419Z,-46
2022-10-07T04:20:53.694Z,-46
2022-10-07T04:21:59.964Z,-46
2022-10-07T04:23:05.251Z,-46
2022-10-07T04:24:11.558Z,-49
2022-10-07T04:25:17.792Z,-46
2022-10-07T04:26:24.093Z,-44
2022-10-07T04:27:30.342Z,-46
2022-10-07T04:28:36.632Z,-46
2022-10-07T04:29:42.886Z,-46
2022-10-07T04:30:48.193Z,-46
2022-10-07T04:31:53.472Z,-46
2022-10-07T04:32:58.779Z,-46
2022-10-07T04:34:05.046Z,-46
2022-10-07T04:35:10.333Z,-45
2022-10-07T04:36:16.667Z,-45
2022-10-07T04:37:22.874Z,-46
2022-10-07T04:38:29.148Z,-46
2022-10-07T04:39:35.416Z,-46
2022-10-07T04:40:41.693Z,-46
2022-10-07T04:41:47.963Z,-46
2022-10-07T04:42:54.233Z,-46
2022-10-07T04:44:00.510Z,-46
2022-10-07T04:45:06.791Z,-46
2022-10-07T04:46:13.056Z,-45
2022-10-07T04:47:19.317Z,-46
2022-10-07T04:48:25.593Z,-46
2022-10-07T04:49:30.880Z,-45
2022-10-07T04:50:37.154Z,-46
2022-10-07T04:51:43.428Z,-46
2022-10-07T04:52:49.706Z,-46
2022-10-07T04:53:55.977Z,-46
2022-10-07T04:55:02.243Z,-46
2022-10-07T04:56:07.581Z,-46
2022-10-07T04:57:12.840Z,-46
2022-10-07T04:58:18.125Z,-47
2022-10-07T04:59:23.415Z,-43
2022-10-07T05:00:29.694Z,-45
2022-10-07T05:01:35.971Z,-46
2022-10-07T05:02:42.236Z,-46
2022-10-07T05:03:48.513Z,-46
2022-10-07T05:04:54.775Z,-46
2022-10-07T05:06:01.052Z,-46
2022-10-07T05:07:07.318Z,-45
2022-10-07T05:08:13.594Z,-45
2022-10-07T05:09:19.875Z,-46
2022-10-07T05:10:26.147Z,-45
2022-10-07T05:11:32.414Z,-46
2022-10-07T05:12:38.689Z,-46
2022-10-07T05:13:43.979Z,-46
2022-10-07T05:14:50.251Z,-45
2022-10-07T05:15:56.512Z,-46
2022-10-07T05:17:02.806Z,-46
2022-10-07T05:18:09.071Z,-46
2022-10-07T05:19:14.356Z,-45
2022-10-07T05:20:20.627Z,-46
2022-10-07T05:21:25.929Z,-46
2022-10-07T05:22:31.224Z,-46
2022-10-07T05:23:37.494Z,-46
2022-10-07T05:24:43.753Z,-46
2022-10-07T05:25:50.034Z,-46
2022-10-07T05:26:56.332Z,-46
2022-10-07T05:28:02.574Z,-44
2022-10-07T05:29:08.858Z,-46
2022-10-07T05:30:15.118Z,-46
2022-10-07T05:31:21.388Z,-45
2022-10-07T05:32:27.665Z,-46
2022-10-07T05:33:33.937Z,-46
2022-10-07T05:34:40.213Z,-46
2022-10-07T05:35:46.540Z,-46
2022-10-07T05:36:51.769Z,-46
2022-10-07T05:37:58.041Z,-47
2022-10-07T05:39:04.313Z,-45
2022-10-07T05:40:10.584Z,-46
2022-10-07T05:41:16.854Z,-46
2022-10-07T05:42:23.127Z,-46
2022-10-07T05:43:29.399Z,-46
2022-10-07T05:44:34.708Z,-46
2022-10-07T05:45:39.987Z,-46
2022-10-07T05:46:46.290Z,-46
2022-10-07T05:47:51.558Z,-46
2022-10-07T05:48:56.853Z,-46
2022-10-07T05:50:02.197Z,-46
2022-10-07T05:51:07.441Z,-46
2022-10-07T05:52:13.704Z,-46
2022-10-07T05:53:19.990Z,-46
2022-10-07T05:54:26.248Z,-48
2022-10-07T05:55:32.520Z,-46
2022-10-07T05:56:38.800Z,-46
2022-10-07T05:57:45.120Z,-44
2022-10-07T05:58:51.339Z,-46
2022-10-07T05:59:57.608Z,-46
2022-10-07T06:01:03.884Z,-47
2022-10-07T06:02:10.154Z,-47
2022-10-07T06:03:16.453Z,-46
2022-10-07T06:04:22.699Z,-46
2022-10-07T06:05:28.978Z,-46
2022-10-07T06:06:34.340Z,-47
2022-10-07T06:07:40.543Z,-46
2022-10-07T06:08:46.810Z,-47
2022-10-07T06:09:53.074Z,-46
2022-10-07T06:10:59.347Z,-46
2022-10-07T06:12:05.624Z,-46
2022-10-07T06:13:10.956Z,-46
2022-10-07T06:14:16.213Z,-46
2022-10-07T06:15:21.509Z,-46
2022-10-07T06:16:26.794Z,-46
2022-10-07T06:17:33.131Z,-46
2022-10-07T06:18:39.341Z,-48
2022-10-07T06:19:45.615Z,-46
2022-10-07T06:20:51.888Z,-46
2022-10-07T06:21:58.157Z,-46
2022-10-07T06:23:04.423Z,-47
2022-10-07T06:24:10.703Z,-46
2022-10-07T06:25:16.983Z,-47
2022-10-07T06:26:23.240Z,-47
2022-10-07T06:27:29.514Z,-46
2022-10-07T06:28:35.792Z,-46
2022-10-07T06:29:42.052Z,-47
2022-10-07T06:30:47.347Z,-47
2022-10-07T06:31:53.615Z,-46
2022-10-07T06:32:59.916Z,-47
2022-10-07T06:34:06.166Z,-46
2022-10-07T06:35:12.435Z,-47
2022-10-07T06:36:18.708Z,-46
2022-10-07T06:37:24.982Z,-50
2022-10-07T06:38:30.309Z,-47
2022-10-07T06:39:35.567Z,-47
2022-10-07T06:40:41.860Z,-47
2022-10-07T06:41:48.114Z,-47
2022-10-07T06:42:53.412Z,-46
2022-10-07T06:43:58.705Z,-47
2022-10-07T06:45:04.974Z,-46
2022-10-07T06:46:11.247Z,-46
2022-10-07T06:47:17.517Z,-47
2022-10-07T06:48:23.793Z,-47
2022-10-07T06:49:30.061Z,-46
2022-10-07T06:50:36.340Z,-46
2022-10-07T06:51:42.604Z,-46
2022-10-07T06:52:48.903Z,-46
2022-10-07T06:53:55.161Z,-47
2022-10-07T06:55:01.418Z,-46
2022-10-07T06:56:07.695Z,-46
2022-10-07T06:57:13.969Z,-46
2022-10-07T06:58:19.264Z,-47
2022-10-07T06:59:25.522Z,-47
2022-10-07T07:00:31.793Z,-47
2022-10-07T07:01:38.101Z,-46
2022-10-07T07:02:44.390Z,-46
2022-10-07T07:03:50.675Z,-46
2022-10-07T07:04:56.882Z,-46
2022-10-07T07:06:02.183Z,-47
2022-10-07T07:07:07.477Z,-46
2022-10-07T07:08:12.768Z,-46
2022-10-07T07:09:18.063Z,-46
2022-10-07T07:10:24.361Z,-46
2022-10-07T07:11:30.605Z,-46
2022-10-07T07:12:36.919Z,-46
2022-10-07T07:13:43.145Z,-46
2022-10-07T07:14:49.419Z,-46
2022-10-07T07:15:55.692Z,-46
2022-10-07T07:17:01.959Z,-48
2022-10-07T07:18:08.240Z,-46
2022-10-07T07:19:14.507Z,-46
2022-10-07T07:20:20.782Z,-46
2022-10-07T07:21:27.099Z,-47
2022-10-07T07:22:33.327Z,-46
2022-10-07T07:23:38.612Z,-46
2022-10-07T07:24:44.905Z,-46
2022-10-07T07:25:51.159Z,-46
2022-10-07T07:26:57.446Z,-46
2022-10-07T07:28:03.696Z,-45
2022-10-07T07:29:09.978Z,-45
2022-10-07T07:30:16.252Z,-45
2022-10-07T07:31:21.599Z,-46
2022-10-07T07:32:26.830Z,-46
2022-10-07T07:33:32.138Z,-46
2022-10-07T07:34:37.440Z,-46
2022-10-07T07:35:43.698Z,-45
2022-10-07T07:36:50.027Z,-45
2022-10-07T07:37:56.238Z,-46
2022-10-07T07:39:02.505Z,-46
2022-10-07T07:40:08.823Z,-46
2022-10-07T07:41:15.051Z,-45
2022-10-07T07:42:21.326Z,-44
2022-10-07T07:43:27.596Z,-44
2022-10-07T07:44:33.870Z,-45
2022-10-07T07:45:40.148Z,-44
2022-10-07T07:46:46.427Z,-43
2022-10-07T07:47:52.718Z,-46
2022-10-07T07:48:57.979Z,-43
2022-10-07T07:50:04.248Z,-43
2022-10-07T07:51:10.570Z,-44
2022-10-07T07:52:16.868Z,-44
2022-10-07T07:53:23.062Z,-43
2022-10-07T07:54:29.383Z,-44
2022-10-07T07:55:35.636Z,-44
2022-10-07T07:56:40.913Z,-43
2022-10-07T07:57:46.193Z,-43
2022-10-07T07:58:52.460Z,-43
2022-10-07T07:59:58.736Z,-46
2022-10-07T08:01:04.037Z,-43
2022-10-07T08:02:09.324Z,-43
2022-10-07T08:03:15.601Z,-43
2022-10-07T08:04:21.865Z,-43
2022-10-07T08:05:28.135Z,-43
2022-10-07T08:06:34.421Z,-43
2022-10-07T08:07:40.785Z,-43
2022-10-07T08:08:46.956Z,-43
2022-10-07T08:09:53.222Z,-43
2022-10-07T08:10:59.498Z,-43
2022-10-07T08:12:05.790Z,-44
2022-10-07T08:13:12.040Z,-44
2022-10-07T08:14:18.329Z,-43
2022-10-07T08:15:24.586Z,-43
2022-10-07T08:16:29.877Z,-43
2022-10-07T08:17:36.256Z,-43
2022-10-07T08:18:42.420Z,-44
2022-10-07T08:19:48.719Z,-43
2022-10-07T08:20:54.979Z,-44
2022-10-07T08:22:01.241Z,-43
2022-10-07T08:23:07.506Z,-42
2022-10-07T08:24:12.810Z,-42
2022-10-07T08:25:18.090Z,-43
2022-10-07T08:26:23.398Z,-43
2022-10-07T08:27:28.688Z,-43
2022-10-07T08:28:34.959Z,-43
2022-10-07T08:29:41.226Z,-40
2022-10-07T08:30:47.549Z,-42
2022-10-07T08:31:53.769Z,-43
2022-10-07T08:33:00.045Z,-43
2022-10-07T08:34:06.311Z,-43
2022-10-07T08:35:12.623Z,-43
2022-10-07T08:36:18.867Z,-43
2022-10-07T08:37:25.135Z,-43
2022-10-07T08:38:31.474Z,-43
2022-10-07T08:39:37.670Z,-42
2022-10-07T08:40:43.956Z,-43
2022-10-07T08:41:50.226Z,-43
2022-10-07T08:42:55.520Z,-43
2022-10-07T08:44:01.783Z,-42
2022-10-07T08:45:08.044Z,-42
2022-10-07T08:46:14.322Z,-42
2022-10-07T08:47:20.588Z,-42
2022-10-07T08:48:26.880Z,-41
2022-10-07T08:49:32.167Z,-43
2022-10-07T08:50:37.477Z,-41
2022-10-07T08:51:42.750Z,-42
2022-10-07T08:52:48.185Z,-42
2022-10-07T08:53:54.306Z,-41
2022-10-07T08:55:00.597Z,-41
2022-10-07T08:56:07.008Z,-41
2022-10-07T08:57:13.133Z,-42
2022-10-07T08:58:19.399Z,-43
2022-10-07T08:59:25.687Z,-40
2022-10-07T09:00:30.965Z,-42
2022-10-07T09:01:37.258Z,-40
2022-10-07T09:02:43.514Z,-40
2022-10-07T09:03:49.796Z,-40
2022-10-07T09:04:56.052Z,-42
2022-10-07T09:06:02.389Z,-41
2022-10-07T09:07:08.624Z,-41
2022-10-07T09:08:14.881Z,-41
2022-10-07T09:09:21.154Z,-40
2022-10-07T09:10:27.414Z,-40
2022-10-07T09:11:33.736Z,-39
2022-10-07T09:12:39.955Z,-41
2022-10-07T09:13:46.234Z,-40
2022-10-07T09:14:51.535Z,-40
2022-10-07T09:15:56.826Z,-40
2022-10-07T09:17:02.127Z,-41
2022-10-07T09:18:07.409Z,-39
2022-10-07T09:19:13.675Z,-40
2022-10-07T09:20:19.946Z,-40
2022-10-07T09:21:26.222Z,-40
2022-10-07T09:22:32.493Z,-40
2022-10-07T09:23:38.767Z,-40
2022-10-07T09:24:45.033Z,-40
2022-10-07T09:25:51.388Z,-40
2022-10-07T09:26:57.589Z,-39
2022-10-07T09:28:03.850Z,-39
2022-10-07T09:29:10.168Z,-40
2022-10-07T09:30:16.402Z,-40
2022-10-07T09:31:22.674Z,-39
2022-10-07T09:32:27.952Z,-39
2022-10-07T09:33:34.227Z,-38
2022-10-07T09:34:40.504Z,-38
2022-10-07T09:35:46.813Z,-38
2022-10-07T09:36:53.043Z,-40
2022-10-07T09:37:59.314Z,-39
2022-10-07T09:39:05.585Z,-37
2022-10-07T09:40:10.887Z,-37
2022-10-07T09:41:17.172Z,-37
2022-10-07T09:42:22.450Z,-37
2022-10-07T09:43:28.735Z,-37
2022-10-07T09:44:34.992Z,-39
2022-10-07T09:45:41.265Z,-38
2022-10-07T09:46:47.540Z,-38
2022-10-07T09:47:53.811Z,-37
2022-10-07T09:49:00.087Z,-39
2022-10-07T09:50:06.369Z,-38
2022-10-07T09:51:12.646Z,-37
2022-10-07T09:52:18.898Z,-37
2022-10-07T09:53:25.226Z,-37
2022-10-07T09:54:31.480Z,-37
2022-10-07T09:55:37.710Z,-37
2022-10-07T09:56:43.028Z,-37
2022-10-07T09:57:49.278Z,-37
2022-10-07T09:58:55.558Z,-37
2022-10-07T10:00:01.817Z,-37
2022-10-07T10:01:08.113Z,-37
2022-10-07T10:02:14.360Z,-38
2022-10-07T10:03:19.698Z,-37
2022-10-07T10:04:24.967Z,-37
2022-10-07T10:05:30.250Z,-37
2022-10-07T10:06:35.535Z,-37
2022-10-07T10:07:40.986Z,-37
2022-10-07T10:08:46.146Z,-37
2022-10-07T10:09:52.394Z,-35
2022-10-07T10:10:58.666Z,-36
2022-10-07T10:12:04.939Z,-37
2022-10-07T10:13:11.214Z,-37
2022-10-07T10:14:17.487Z,-37
2022-10-07T10:15:23.762Z,-37
2022-10-07T10:16:30.029Z,-36
2022-10-07T10:17:36.293Z,-36
2022-10-07T10:18:42.599Z,-37
2022-10-07T10:19:48.842Z,-36
2022-10-07T10:20:55.157Z,-36
2022-10-07T10:22:01.390Z,-36
2022-10-07T10:23:06.679Z,-37
2022-10-07T10:24:12.946Z,-35
2022-10-07T10:25:19.228Z,-36
2022-10-07T10:26:25.595Z,-34
2022-10-07T10:27:31.761Z,-36
2022-10-07T10:28:38.041Z,-36
2022-10-07T10:29:44.303Z,-35
2022-10-07T10:30:49.611Z,-37
2022-10-07T10:31:54.898Z,-34
2022-10-07T10:33:01.165Z,-37
2022-10-07T10:34:07.439Z,-36
2022-10-07T10:35:12.753Z,-38
2022-10-07T10:36:18.058Z,-37
2022-10-07T10:37:24.295Z,-36
2022-10-07T10:38:30.618Z,-36
2022-10-07T10:39:36.841Z,-36
2022-10-07T10:40:43.116Z,-35
2022-10-07T10:41:49.387Z,-35
2022-10-07T10:42:55.814Z,-37
2022-10-07T10:44:01.936Z,-36
2022-10-07T10:45:08.359Z,-36
2022-10-07T10:46:14.493Z,-37
2022-10-07T10:47:20.747Z,-36
2022-10-07T10:48:27.019Z,-36
2022-10-07T10:49:33.355Z,-35
2022-10-07T10:50:38.580Z,-36
2022-10-07T10:51:44.856Z,-35
2022-10-07T10:52:51.134Z,-35
2022-10-07T10:53:57.396Z,-35
2022-10-07T10:55:03.665Z,-34
2022-10-07T10:56:09.942Z,-36
2022-10-07T10:57:16.214Z,-36
2022-10-07T10:58:21.609Z,-35
2022-10-07T10:59:26.947Z,-37
2022-10-07T11:00:32.102Z,-35
2022-10-07T11:01:37.379Z,-35
2022-10-07T11:02:43.655Z,-37
2022-10-07T11:03:49.929Z,-35
2022-10-07T11:04:56.210Z,-36
2022-10-07T11:06:02.477Z,-35
2022-10-07T11:07:08.748Z,-35
2022-10-07T11:08:15.011Z,-35
2022-10-07T11:09:21.291Z,-34
2022-10-07T11:10:27.564Z,-35
2022-10-07T11:11:33.830Z,-36
2022-10-07T11:12:40.106Z,-34
2022-10-07T11:13:46.384Z,-35
2022-10-07T11:14:52.659Z,-36
2022-10-07T11:15:57.939Z,-35
2022-10-07T11:17:04.211Z,-36
2022-10-07T11:18:10.481Z,-35
2022-10-07T11:19:16.752Z,-36
2022-10-07T11:20:23.028Z,-35
2022-10-07T11:21:29.348Z,-37
2022-10-07T11:22:35.571Z,-36
2022-10-07T11:23:41.946Z,-36
2022-10-07T11:24:47.172Z,-35
2022-10-07T11:25:52.431Z,-36
2022-10-07T11:26:58.702Z,-35
2022-10-07T11:28:05.001Z,-37
2022-10-07T11:29:10.271Z,-37
2022-10-07T11:30:15.565Z,-36
2022-10-07T11:31:21.863Z,-37
2022-10-07T11:32:28.106Z,-36
2022-10-07T11:33:34.384Z,-36
2022-10-07T11:34:40.647Z,-36
2022-10-07T11:35:46.919Z,-37
2022-10-07T11:36:53.187Z,-34
2022-10-07T11:37:59.472Z,-36
2022-10-07T11:39:05.764Z,-36
2022-10-07T11:40:12.013Z,-35
2022-10-07T11:41:18.295Z,-35
2022-10-07T11:42:24.567Z,-36
2022-10-07T11:43:30.826Z,-37
2022-10-07T11:44:36.118Z,-37
2022-10-07T11:45:42.394Z,-35
2022-10-07T11:46:48.653Z,-35
2022-10-07T11:47:54.929Z,-37
2022-10-07T11:49:01.203Z,-35
2022-10-07T11:50:07.468Z,-37
2022-10-07T11:51:13.777Z,-36
2022-10-07T11:52:19.053Z,-36
2022-10-07T11:53:24.334Z,-34
2022-10-07T11:54:29.633Z,-35
2022-10-07T11:55:34.929Z,-35
2022-10-07T11:56:41.190Z,-35
2022-10-07T11:57:47.460Z,-34
2022-10-07T11:58:53.736Z,-36
2022-10-07T12:00:00.050Z,-36
2022-10-07T12:01:06.279Z,-36
2022-10-07T12:02:12.557Z,-35
2022-10-07T12:03:18.824Z,-36
2022-10-07T12:04:25.091Z,-37
2022-10-07T12:05:31.373Z,-36
2022-10-07T12:06:37.655Z,-36
2022-10-07T12:07:43.907Z,-38
2022-10-07T12:08:50.184Z,-36
2022-10-07T12:09:55.471Z,-37
2022-10-07T12:11:01.748Z,-37
2022-10-07T12:12:08.037Z,-35
2022-10-07T12:13:14.289Z,-36
2022-10-07T12:14:20.565Z,-35
2022-10-07T12:15:26.831Z,-36
2022-10-07T12:16:33.105Z,-36
2022-10-07T12:17:39.378Z,-36
2022-10-07T12:18:45.645Z,-35
2022-10-07T12:19:50.953Z,-36
2022-10-07T12:20:56.236Z,-36
2022-10-07T12:22:02.512Z,-37
2022-10-07T12:23:08.785Z,-36
2022-10-07T12:24:14.078Z,-36
2022-10-07T12:25:19.376Z,-35
2022-10-07T12:26:25.642Z,-35
2022-10-07T12:27:31.915Z,-36
2022-10-07T12:28:38.180Z,-36
2022-10-07T12:29:44.461Z,-37
2022-10-07T12:30:50.751Z,-36
2022-10-07T12:31:57.033Z,-36
2022-10-07T12:33:03.300Z,-36
2022-10-07T12:34:09.542Z,-36
2022-10-07T12:35:15.817Z,-36
2022-10-07T12:36:22.124Z,-36
2022-10-07T12:37:28.360Z,-35
2022-10-07T12:38:34.661Z,-36
2022-10-07T12:39:39.944Z,-35
2022-10-07T12:40:46.187Z,-36
2022-10-07T12:41:51.487Z,-36
2022-10-07T12:42:57.757Z,-37
2022-10-07T12:44:04.037Z,-36
2022-10-07T12:45:10.316Z,-36
2022-10-07T12:46:16.577Z,-37
2022-10-07T12:47:21.874Z,-36
2022-10-07T12:48:27.168Z,-34
2022-10-07T12:49:32.459Z,-34
2022-10-07T12:50:37.758Z,-35
2022-10-07T12:51:44.024Z,-35
2022-10-07T12:52:50.294Z,-36
2022-10-07T12:53:56.654Z,-36
2022-10-07T12:55:02.844Z,-37
2022-10-07T12:56:09.110Z,-36
2022-10-07T12:57:15.383Z,-36
2022-10-07T12:58:21.677Z,-37
2022-10-07T12:59:27.981Z,-36
2022-10-07T13:00:34.216Z,-36
2022-10-07T13:01:40.475Z,-36
2022-10-07T13:02:46.810Z,-37
2022-10-07T13:03:53.013Z,-35
2022-10-07T13:04:58.301Z,-36
2022-10-07T13:06:04.598Z,-35
2022-10-07T13:07:10.877Z,-36
2022-10-07T13:08:17.148Z,-37
2022-10-07T13:09:23.394Z,-36
2022-10-07T13:10:29.696Z,-37
2022-10-07T13:11:35.938Z,-36
2022-10-07T13:12:41.266Z,-37
2022-10-07T13:13:46.555Z,-36
2022-10-07T13:14:51.843Z,-36
2022-10-07T13:15:57.116Z,-36
2022-10-07T13:17:03.392Z,-36
2022-10-07T13:18:09.655Z,-37
2022-10-07T13:19:15.932Z,-36
2022-10-07T13:20:22.204Z,-35
2022-10-07T13:21:28.472Z,-35
2022-10-07T13:22:34.801Z,-36
2022-10-07T13:23:41.021Z,-36
2022-10-07T13:24:47.297Z,-37
2022-10-07T13:25:53.561Z,-37
2022-10-07T13:26:59.833Z,-37
2022-10-07T13:28:06.106Z,-36
2022-10-07T13:29:12.408Z,-37
2022-10-07T13:30:17.666Z,-37
2022-10-07T13:31:23.934Z,-36
2022-10-07T13:32:30.221Z,-37
2022-10-07T13:33:36.478Z,-38
2022-10-07T13:34:42.760Z,-37
2022-10-07T13:35:49.027Z,-38
2022-10-07T13:36:55.303Z,-36
2022-10-07T13:38:00.622Z,-37
2022-10-07T13:39:05.888Z,-37
2022-10-07T13:40:12.187Z,-36
2022-10-07T13:41:17.458Z,-36
2022-10-07T13:42:22.745Z,-36
2022-10-07T13:43:29.046Z,-37
2022-10-07T13:44:35.334Z,-37
2022-10-07T13:45:41.592Z,-37
2022-10-07T13:46:47.831Z,-36
2022-10-07T13:47:54.176Z,-35
2022-10-07T13:49:00.379Z,-37
2022-10-07T13:50:06.652Z,-35
2022-10-07T13:51:12.931Z,-37
2022-10-07T13:52:19.189Z,-37
2022-10-07T13:53:25.464Z,-36
2022-10-07T13:54:31.755Z,-36
2022-10-07T13:55:38.005Z,-37
2022-10-07T13:56:43.296Z,-38
2022-10-07T13:57:49.598Z,-36
2022-10-07T13:58:55.842Z,-36
2022-10-07T14:00:02.118Z,-36
2022-10-07T14:01:08.387Z,-36
2022-10-07T14:02:14.658Z,-38
2022-10-07T14:03:20.926Z,-37
2022-10-07T14:04:26.302Z,-37
2022-10-07T14:05:31.528Z,-36
2022-10-07T14:06:37.792Z,-37
2022-10-07T14:07:44.065Z,-36
2022-10-07T14:08:49.355Z,-37
2022-10-07T14:09:54.685Z,-36
2022-10-07T14:11:00.914Z,-38
2022-10-07T14:12:07.207Z,-37
2022-10-07T14:13:13.469Z,-37
2022-10-07T14:14:19.738Z,-36
2022-10-07T14:15:26.086Z,-37
2022-10-07T14:16:32.278Z,-37
2022-10-07T14:17:38.551Z,-37
2022-10-07T14:18:44.834Z,-37
2022-10-07T14:19:51.094Z,-37
2022-10-07T14:20:57.375Z,-36
2022-10-07T14:22:03.674Z,-37
2022-10-07T14:23:09.909Z,-36
2022-10-07T14:24:15.202Z,-37
2022-10-07T14:25:21.473Z,-36
2022-10-07T14:26:27.753Z,-37
2022-10-07T14:27:34.018Z,-35
2022-10-07T14:28:40.282Z,-37
2022-10-07T14:29:46.564Z,-36
2022-10-07T14:30:52.834Z,-37
2022-10-07T14:31:58.132Z,-37
2022-10-07T14:33:03.422Z,-37
2022-10-07T14:34:08.714Z,-35
2022-10-07T14:35:14.006Z,-37
2022-10-07T14:36:20.282Z,-36
2022-10-07T14:37:26.549Z,-37
2022-10-07T14:38:32.827Z,-36
2022-10-07T14:39:39.096Z,-36
2022-10-07T14:40:45.373Z,-38
2022-10-07T14:41:51.634Z,-36
2022-10-07T14:42:57.909Z,-37
2022-10-07T14:44:04.217Z,-37
2022-10-07T14:45:10.452Z,-36
2022-10-07T14:46:16.738Z,-36
2022-10-07T14:47:23.027Z,-37
2022-10-07T14:48:29.287Z,-37
2022-10-07T14:49:34.563Z,-37
2022-10-07T14:50:40.833Z,-36
2022-10-07T14:51:47.103Z,-37
2022-10-07T14:52:53.405Z,-36
2022-10-07T14:53:59.654Z,-36
2022-10-07T14:55:05.945Z,-37
2022-10-07T14:56:12.192Z,-37
2022-10-07T14:57:17.498Z,-36
2022-10-07T14:58:22.776Z,-36
2022-10-07T14:59:29.055Z,-37
2022-10-07T15:00:34.351Z,-36
2022-10-07T15:01:39.666Z,-37
2022-10-07T15:02:45.915Z,-36
2022-10-07T15:03:52.208Z,-37
2022-10-07T15:04:58.478Z,-37
2022-10-07T15:06:04.720Z,-37
2022-10-07T15:07:11.003Z,-37
2022-10-07T15:08:17.345Z,-37
2022-10-07T15:09:23.575Z,-37
2022-10-07T15:10:29.812Z,-36